createdAt,value
2019-01-27T00:01:17.827Z,85.17
2019-01-27T00:03:46.177Z,84.41
2019-01-27T00:06:14.605Z,84.00
2019-01-27T00:08:43.040Z,84.27
2019-01-27T00:11:11.514Z,84.91
2019-01-27T00:13:39.925Z,85.28
2019-01-27T00:16:08.498Z,84.26
2019-01-27T00:18:36.956Z,83.75
2019-01-27T00:21:05.291Z,84.62
2019-01-27T00:23:33.850Z,83.94
2019-01-27T00:26:02.239Z,83.80
2019-01-27T00:28:30.634Z,83.95
2019-01-27T00:30:59.037Z,84.44
2019-01-27T00:33:27.413Z,83.91
2019-01-27T00:35:55.946Z,83.73
2019-01-27T00:38:24.366Z,83.69
2019-01-27T00:40:52.701Z,83.98
2019-01-27T00:43:21.161Z,83.74
2019-01-27T00:45:49.695Z,83.62
2019-01-27T00:48:18.227Z,84.04
2019-01-27T00:50:46.573Z,83.74
2019-01-27T00:53:15.064Z,84.19
2019-01-27T00:55:43.598Z,83.94
2019-01-27T00:58:11.983Z,84.13
2019-01-27T01:00:40.455Z,84.89
2019-01-27T01:03:08.982Z,84.41
2019-01-27T01:05:37.431Z,83.82
2019-01-27T01:08:06.897Z,84.00
2019-01-27T01:10:35.447Z,83.97
2019-01-27T01:13:04.023Z,84.57
2019-01-27T01:15:32.699Z,84.33
2019-01-27T01:18:02.037Z,84.68
2019-01-27T01:20:30.651Z,84.85
2019-01-27T01:22:59.363Z,85.34
2019-01-27T01:25:28.591Z,84.80
2019-01-27T01:27:57.119Z,84.78
2019-01-27T01:30:26.746Z,84.99
2019-01-27T01:32:55.849Z,85.20
2019-01-27T01:35:25.727Z,85.47
2019-01-27T01:37:55.240Z,85.65
2019-01-27T01:40:23.928Z,85.08
2019-01-27T01:42:53.440Z,85.24
2019-01-27T01:45:24.256Z,85.99
2019-01-27T01:47:53.053Z,85.65
2019-01-27T01:50:21.845Z,86.54
2019-01-27T01:52:50.465Z,85.99
2019-01-27T01:55:19.565Z,85.68
2019-01-27T01:57:48.260Z,85.71
2019-01-27T02:00:21.322Z,85.84
2019-01-27T02:02:50.629Z,85.98
2019-01-27T02:05:20.761Z,85.83
2019-01-27T02:07:51.549Z,85.57
2019-01-27T02:10:23.035Z,85.15
2019-01-27T02:12:55.604Z,85.02
2019-01-27T02:15:53.648Z,85.58
2019-01-27T02:18:26.389Z,85.79
2019-01-27T02:21:00.445Z,85.81
2019-01-27T02:23:31.923Z,84.68
2019-01-27T02:26:05.886Z,84.91
2019-01-27T02:28:34.729Z,84.82
2019-01-27T02:31:04.776Z,84.92
2019-01-27T02:33:35.805Z,84.83
2019-01-27T02:36:05.939Z,85.18
2019-01-27T02:38:35.610Z,84.95
2019-01-27T02:41:04.783Z,85.12
2019-01-27T02:43:33.420Z,84.83
2019-01-27T02:46:02.385Z,84.34
2019-01-27T02:48:31.450Z,84.64
2019-01-27T02:51:00.953Z,84.86
2019-01-27T02:53:30.675Z,85.03
2019-01-27T02:56:02.318Z,84.91
2019-01-27T02:58:32.621Z,84.88
2019-01-27T03:01:01.886Z,84.43
2019-01-27T03:03:31.712Z,84.69
2019-01-27T03:06:25.387Z,84.84
2019-01-27T03:09:00.071Z,85.21
2019-01-27T03:11:32.094Z,84.49
2019-01-27T03:14:01.886Z,84.63
2019-01-27T03:16:31.889Z,84.28
2019-01-27T03:19:00.573Z,84.10
2019-01-27T03:21:29.306Z,84.34
2019-01-27T03:23:58.053Z,84.14
2019-01-27T03:26:27.774Z,84.04
2019-01-27T03:29:00.853Z,84.28
2019-01-27T03:31:29.914Z,84.41
2019-01-27T03:34:00.285Z,84.22
2019-01-27T03:36:29.934Z,84.23
2019-01-27T03:38:59.071Z,84.16
2019-01-27T03:41:28.879Z,84.01
2019-01-27T03:43:58.566Z,83.67
2019-01-27T03:46:30.559Z,84.25
2019-01-27T03:49:00.045Z,84.00
2019-01-27T03:51:29.437Z,83.73
2019-01-27T03:53:58.832Z,84.26
2019-01-27T03:56:28.290Z,83.54
2019-01-27T03:58:57.748Z,82.96
2019-01-27T04:01:27.225Z,83.29
2019-01-27T04:03:57.875Z,83.03
2019-01-27T04:06:28.225Z,83.00
2019-01-27T04:09:05.205Z,83.16
2019-01-27T04:11:38.371Z,82.92
2019-01-27T04:14:08.068Z,83.48
2019-01-27T04:16:37.371Z,83.05
2019-01-27T04:19:08.001Z,83.25
2019-01-27T04:21:37.023Z,83.03
2019-01-27T04:24:20.512Z,82.83
2019-01-27T04:26:56.646Z,82.98
2019-01-27T05:10:10.555Z,83.85
2019-01-27T05:12:43.665Z,83.29
2019-01-27T05:16:17.840Z,83.42
2019-01-27T05:19:11.556Z,83.12
2019-01-27T05:22:27.444Z,83.18
2019-01-27T05:28:22.938Z,82.41
2019-01-27T05:30:55.135Z,81.41
2019-01-27T05:33:28.082Z,82.23
2019-01-27T05:35:57.076Z,81.49
2019-01-27T05:38:30.363Z,81.87
2019-01-27T05:40:59.065Z,80.91
2019-01-27T05:43:30.767Z,81.11
2019-01-27T05:46:02.176Z,81.58
2019-01-27T05:48:35.363Z,81.43
2019-01-27T05:51:05.836Z,81.89
2019-01-27T05:53:35.449Z,81.06
2019-01-27T05:56:14.956Z,81.20
2019-01-27T05:58:48.589Z,81.42
2019-01-27T06:01:18.606Z,81.32
2019-01-27T06:03:57.332Z,80.83
2019-01-27T06:06:30.977Z,81.40
2019-01-27T06:08:59.502Z,82.14
2019-01-27T06:11:30.941Z,81.11
2019-01-27T06:14:04.989Z,81.09
2019-01-27T06:16:39.204Z,81.25
2019-01-27T06:19:08.855Z,81.64
2019-01-27T06:21:40.864Z,81.69
2019-01-27T06:24:09.813Z,81.83
2019-01-27T06:26:40.606Z,81.56
2019-01-27T06:29:13.669Z,82.25
2019-01-27T06:31:46.111Z,81.53
2019-01-27T06:34:19.463Z,81.16
2019-01-27T06:36:50.857Z,81.40
2019-01-27T06:39:20.041Z,82.02
2019-01-27T06:41:48.753Z,81.74
2019-01-27T06:44:17.566Z,81.70
2019-01-27T06:46:49.111Z,81.43
2019-01-27T06:49:17.771Z,81.89
2019-01-27T06:51:46.331Z,81.46
2019-01-27T06:54:14.897Z,82.10
2019-01-27T06:56:44.290Z,81.91
2019-01-27T06:59:26.789Z,81.70
2019-01-27T07:02:29.838Z,81.58
2019-01-27T07:05:26.083Z,81.06
2019-01-27T07:08:11.771Z,81.12
2019-01-27T07:11:04.980Z,80.92
2019-01-27T07:13:50.866Z,81.69
2019-01-27T07:16:57.555Z,80.90
2019-01-27T07:19:50.603Z,80.87
2019-01-27T07:22:33.302Z,80.91
2019-01-27T07:25:11.844Z,80.42
2019-01-27T07:28:00.960Z,81.18
2019-01-27T07:30:46.767Z,80.68
2019-01-27T07:33:32.373Z,80.38
2019-01-27T07:36:28.480Z,80.57
2019-01-27T07:39:18.464Z,80.17
2019-01-27T07:42:08.768Z,80.34
2019-01-27T07:44:58.940Z,80.59
2019-01-27T07:48:04.159Z,80.52
2019-01-27T07:51:04.358Z,80.50
2019-01-27T07:53:50.515Z,80.19
2019-01-27T07:56:36.157Z,80.65
2019-01-27T07:59:17.604Z,80.53
2019-01-27T08:01:54.827Z,80.53
2019-01-27T08:04:57.113Z,80.68
2019-01-27T08:07:49.793Z,80.59
2019-01-27T08:10:36.357Z,80.37
2019-01-27T08:13:23.719Z,80.50
2019-01-27T08:16:09.945Z,80.67
2019-01-27T08:18:46.545Z,80.35
2019-01-27T08:21:25.368Z,80.88
2019-01-27T08:24:12.152Z,80.33
2019-01-27T08:27:14.873Z,80.86
2019-01-27T08:29:57.015Z,80.86
2019-01-27T08:32:50.508Z,80.75
2019-01-27T08:35:37.931Z,80.98
2019-01-27T08:38:14.606Z,80.53
2019-01-27T08:41:01.150Z,80.43
2019-01-27T08:43:41.566Z,80.79
2019-01-27T08:46:32.485Z,80.43
2019-01-27T08:49:01.188Z,80.70
2019-01-27T08:51:29.582Z,81.54
2019-01-27T08:53:58.034Z,80.71
2019-01-27T08:56:27.675Z,81.47
2019-01-27T08:58:56.957Z,81.57
2019-01-27T09:01:47.178Z,81.02
2019-01-27T09:04:25.858Z,81.74
2019-01-27T09:07:46.011Z,81.79
2019-01-27T09:10:25.336Z,81.19
2019-01-27T09:13:27.574Z,83.00
2019-01-27T09:16:17.838Z,82.07
2019-01-27T09:18:54.360Z,81.87
2019-01-27T09:21:41.764Z,81.97
2019-01-27T09:24:18.759Z,82.10
2019-01-27T09:27:15.026Z,82.67
2019-01-27T09:30:06.316Z,81.58
2019-01-27T09:32:56.902Z,82.38
2019-01-27T09:35:47.558Z,82.14
2019-01-27T09:38:43.788Z,81.49
2019-01-27T09:41:37.414Z,82.88
2019-01-27T09:44:33.649Z,81.92
2019-01-27T09:47:19.518Z,82.26
2019-01-27T09:50:06.250Z,82.14
2019-01-27T09:53:11.837Z,82.71
2019-01-27T09:56:16.598Z,83.30
2019-01-27T09:59:17.805Z,82.39
2019-01-27T10:02:07.921Z,82.45
2019-01-27T10:04:42.385Z,82.22
2019-01-27T10:07:32.682Z,82.41
2019-01-27T10:10:23.206Z,82.13
2019-01-27T10:13:04.230Z,81.93
2019-01-27T10:15:42.966Z,83.02
2019-01-27T10:18:57.218Z,82.18
2019-01-27T10:21:56.607Z,82.85
2019-01-27T10:24:31.278Z,82.28
2019-01-27T10:27:12.241Z,83.50
2019-01-27T10:36:09.061Z,82.30
2019-01-27T10:38:53.121Z,82.03
2019-01-27T10:41:43.890Z,82.11
2019-01-27T10:44:22.321Z,81.67
2019-01-27T10:47:06.740Z,81.86
2019-01-27T10:49:57.302Z,82.37
2019-01-27T10:52:47.445Z,82.10
2019-01-27T10:55:40.869Z,82.07
2019-01-27T10:58:30.651Z,82.12
2019-01-27T11:01:22.404Z,82.18
2019-01-27T11:04:10.105Z,82.05
2019-01-27T11:06:48.885Z,82.20
2019-01-27T11:09:38.170Z,82.31
2019-01-27T11:12:24.525Z,82.44
2019-01-27T11:15:14.782Z,82.45
2019-01-27T11:18:01.227Z,82.57
2019-01-27T11:20:47.188Z,82.46
2019-01-27T11:23:40.939Z,82.19
2019-01-27T11:26:34.590Z,82.18
2019-01-27T11:29:19.780Z,82.38
2019-01-27T11:32:22.694Z,83.17
2019-01-27T11:35:43.952Z,82.97
2019-01-27T11:38:42.393Z,83.69
2019-01-27T11:41:40.535Z,82.78
2019-01-27T11:50:49.037Z,83.25
2019-01-27T12:03:30.477Z,82.98
2019-01-27T12:18:39.005Z,83.69
2019-01-27T13:13:15.620Z,83.79
2019-01-27T15:58:29.134Z,87.17
2019-01-27T16:15:47.234Z,87.92
2019-01-27T16:18:21.128Z,88.30
2019-01-27T16:20:50.134Z,88.19
2019-01-27T16:23:40.230Z,87.87
2019-01-27T16:26:13.444Z,88.02
2019-01-27T16:28:45.485Z,88.14
2019-01-27T16:31:37.729Z,88.67
2019-01-27T16:34:20.299Z,87.99
2019-01-27T16:36:56.247Z,88.16
2019-01-27T16:39:30.288Z,88.17
2019-01-27T16:41:59.008Z,88.23
2019-01-27T16:44:27.540Z,87.82
2019-01-27T16:46:56.002Z,88.28
2019-01-27T16:49:24.452Z,88.09
2019-01-27T16:51:52.841Z,88.49
2019-01-27T16:54:21.259Z,88.51
2019-01-27T16:56:50.227Z,88.28
2019-01-27T16:59:18.908Z,88.88
2019-01-27T17:01:47.494Z,88.76
2019-01-27T17:04:16.324Z,88.66
2019-01-27T17:06:44.949Z,88.49
2019-01-27T17:09:13.451Z,88.50
2019-01-27T17:11:42.259Z,89.04
2019-01-27T17:14:11.141Z,88.97
2019-01-27T17:16:40.531Z,88.65
2019-01-27T17:19:09.476Z,88.77
2019-01-27T17:21:38.579Z,89.29
2019-01-27T17:24:07.129Z,89.30
2019-01-27T17:26:35.704Z,88.84
2019-01-27T17:29:04.188Z,89.38
2019-01-27T17:31:32.880Z,89.05
2019-01-27T17:34:01.325Z,89.17
2019-01-27T17:36:30.379Z,88.98
2019-01-27T17:39:09.210Z,88.97
2019-01-27T17:41:40.330Z,88.68
2019-01-27T17:44:09.142Z,88.74
2019-01-27T17:46:42.078Z,88.49
2019-01-27T17:49:20.873Z,88.52
2019-01-27T17:51:49.753Z,88.62
2019-01-27T17:54:18.795Z,88.68
2019-01-27T17:56:55.071Z,88.80
2019-01-27T17:59:49.426Z,88.69
2019-01-27T18:02:43.881Z,89.15
2019-01-27T18:05:26.223Z,89.16
2019-01-27T18:08:08.875Z,89.38
2019-01-27T18:11:03.057Z,88.98
2019-01-27T18:13:58.743Z,89.18
2019-01-27T18:16:27.430Z,88.92
2019-01-27T18:18:55.961Z,89.36
2019-01-27T18:21:24.857Z,89.28
2019-01-27T18:23:53.823Z,89.14
2019-01-27T18:26:23.119Z,89.16
2019-01-27T18:28:52.365Z,89.21
2019-01-27T18:31:21.082Z,89.27
2019-01-27T18:33:49.865Z,89.14
2019-01-27T18:36:18.552Z,89.26
2019-01-27T18:38:48.485Z,89.09
2019-01-27T18:41:19.933Z,89.57
2019-01-27T18:43:48.540Z,89.23
2019-01-27T18:46:17.421Z,89.28
2019-01-27T18:48:46.020Z,89.32
2019-01-27T18:51:17.321Z,89.12
2019-01-27T18:54:04.362Z,89.16
2019-01-27T18:56:49.989Z,89.66
2019-01-27T18:59:37.437Z,89.71
2019-01-27T19:02:19.252Z,89.47
2019-01-27T19:05:18.414Z,89.09
2019-01-27T19:08:14.565Z,89.19
2019-01-27T19:11:05.168Z,89.26
2019-01-27T19:13:55.288Z,89.33
2019-01-27T19:22:57.407Z,89.56
2019-01-27T19:25:44.755Z,89.26
2019-01-27T19:28:34.868Z,89.30
2019-01-27T19:31:25.145Z,89.17
2019-01-27T19:34:03.408Z,89.43
2019-01-27T19:36:39.273Z,89.60
2019-01-27T19:39:36.458Z,89.37
2019-01-27T19:42:29.375Z,89.41
2019-01-27T19:45:11.686Z,89.24
2019-01-27T19:47:47.796Z,89.14
2019-01-27T19:50:43.885Z,89.13
2019-01-27T19:53:32.179Z,89.51
2019-01-27T19:56:37.571Z,89.41
2019-01-27T19:59:30.771Z,89.25
2019-01-27T20:02:22.013Z,89.81
2019-01-27T20:04:59.972Z,89.27
2019-01-27T20:07:53.243Z,89.43
2019-01-27T20:10:52.516Z,88.96
2019-01-27T20:13:32.657Z,89.23
2019-01-27T20:16:25.728Z,89.17
2019-01-27T20:19:04.124Z,89.08
2019-01-27T20:22:00.207Z,89.10
2019-01-27T20:24:49.106Z,89.27
2019-01-27T20:27:34.721Z,89.28
2019-01-27T20:30:19.459Z,89.43
2019-01-27T20:33:13.333Z,89.40
2019-01-27T20:35:56.344Z,89.33
2019-01-27T20:38:46.562Z,89.44
2019-01-27T20:41:39.697Z,89.22
2019-01-27T20:44:11.015Z,89.33
2019-01-27T20:47:01.090Z,89.69
2019-01-27T20:49:46.979Z,89.51
2019-01-27T20:52:30.523Z,89.30
2019-01-27T20:55:12.093Z,88.96
2019-01-27T20:57:49.747Z,89.24
2019-01-27T21:00:45.852Z,89.50
2019-01-27T21:03:30.114Z,89.46
2019-01-27T21:06:13.476Z,89.49
2019-01-27T21:09:15.702Z,89.71
2019-01-27T21:12:02.925Z,89.83
2019-01-27T21:14:44.231Z,89.49
2019-01-27T21:17:33.355Z,89.28
2019-01-27T21:20:08.031Z,89.58
2019-01-27T21:22:36.351Z,89.63
2019-01-27T21:25:05.262Z,89.61
2019-01-27T21:27:33.676Z,89.59
2019-01-27T21:30:01.970Z,89.27
2019-01-27T21:32:30.309Z,89.37
2019-01-27T21:34:58.763Z,89.31
2019-01-27T21:37:27.055Z,89.60
2019-01-27T21:39:55.423Z,89.54
2019-01-27T21:42:23.911Z,89.38
2019-01-27T21:44:52.292Z,90.03
2019-01-27T21:47:20.713Z,89.46
2019-01-27T21:49:49.140Z,89.39
2019-01-27T21:52:17.608Z,89.61
2019-01-27T21:54:45.916Z,89.40
2019-01-27T21:57:14.418Z,89.67
2019-01-27T21:59:42.767Z,89.54
2019-01-27T22:02:11.106Z,89.56
2019-01-27T22:04:39.565Z,89.99
2019-01-27T22:07:07.864Z,89.55
2019-01-27T22:09:36.417Z,89.43
2019-01-27T22:12:05.139Z,89.72
2019-01-27T22:14:33.625Z,90.09
2019-01-27T22:17:01.960Z,89.90
2019-01-27T22:19:30.479Z,89.63
2019-01-27T22:21:59.766Z,89.81
2019-01-27T22:24:28.216Z,89.85
2019-01-27T22:26:56.817Z,89.65
2019-01-27T22:29:25.395Z,89.74
2019-01-27T22:31:54.537Z,90.00
2019-01-27T22:34:23.021Z,89.92
2019-01-27T22:36:51.376Z,90.23
2019-01-27T22:39:20.312Z,90.00
2019-01-27T22:41:49.423Z,90.23
2019-01-27T22:44:17.814Z,90.32
2019-01-27T22:46:46.769Z,90.16
2019-01-27T22:49:15.431Z,90.40
2019-01-27T22:51:43.904Z,90.20
2019-01-27T22:54:13.921Z,90.32
2019-01-27T22:59:13.066Z,90.29
2019-01-27T23:01:44.053Z,90.16
2019-01-27T23:04:14.577Z,90.24
2019-01-27T23:06:44.092Z,90.55
2019-01-27T23:09:19.858Z,90.36
2019-01-27T23:11:50.571Z,90.34
2019-01-27T23:14:28.182Z,90.63
2019-01-27T23:17:17.153Z,90.43
2019-01-27T23:20:12.754Z,90.45
2019-01-27T23:22:48.080Z,90.62
2019-01-27T23:25:29.149Z,90.66
2019-01-27T23:28:12.194Z,90.71
2019-01-27T23:30:45.825Z,90.63
2019-01-27T23:33:21.542Z,90.40
2019-01-27T23:35:57.552Z,90.72
2019-01-27T23:39:16.867Z,90.38
2019-01-27T23:42:28.300Z,90.37
2019-01-27T23:45:36.028Z,90.17
2019-01-27T23:51:25.883Z,90.47
2019-01-27T23:58:13.123Z,90.45
